Time;durP1;ratioP1;P1;durP2;ratioP2;P2;SDS_P1;SDS_P2;PMS_P1;PMS_P2;Temp;Humidity;BMP_temperature;BMP_pressure;BME280_temperature;BME280_humidity;BME280_pressure;Samples;Min_cycle;Max_cycle;Signal;HPM_P1;HPM_P2
2022/03/29 00:00:38;;;;;;;39.38;22.55;;;7.60;99.90;;;;;;5050947;28;20354;-85
2022/03/29 00:03:07;;;;;;;33.05;20.23;;;7.50;99.90;;;;;;5039345;28;20245;-88
2022/03/29 00:05:36;;;;;;;40.22;21.38;;;7.60;99.90;;;;;;5044620;28;20678;-88
2022/03/29 00:08:04;;;;;;;36.10;21.10;;;7.60;99.90;;;;;;5036024;28;20217;-87
2022/03/29 00:10:34;;;;;;;34.08;20.42;;;7.60;99.90;;;;;;5046924;28;20724;-87
2022/03/29 00:13:02;;;;;;;34.40;21.00;;;7.70;99.90;;;;;;5048195;28;20217;-87
2022/03/29 00:15:30;;;;;;;40.95;23.95;;;7.60;99.90;;;;;;5048204;28;20296;-86
2022/03/29 00:17:58;;;;;;;36.03;20.95;;;7.60;99.90;;;;;;5048724;28;20205;-88
2022/03/29 00:20:26;;;;;;;41.55;21.48;;;7.70;99.90;;;;;;5048845;28;20872;-89
2022/03/29 00:22:54;;;;;;;33.70;21.80;;;7.70;99.90;;;;;;5049405;28;20201;-89
2022/03/29 00:25:22;;;;;;;34.15;21.73;;;7.70;99.90;;;;;;5049185;28;20201;-89
2022/03/29 00:27:51;;;;;;;38.25;20.42;;;7.70;99.90;;;;;;5056924;28;20305;-89
2022/03/29 00:30:20;;;;;;;43.85;25.10;;;7.70;99.90;;;;;;5054277;28;20217;-89
2022/03/29 00:32:48;;;;;;;32.92;20.92;;;7.80;99.90;;;;;;5070149;28;20209;-86
2022/03/29 00:35:16;;;;;;;34.40;22.17;;;7.80;99.90;;;;;;5059751;28;20202;-87
2022/03/29 00:37:45;;;;;;;32.45;21.35;;;7.80;99.90;;;;;;5052947;28;20224;-89
2022/03/29 00:40:14;;;;;;;39.17;21.55;;;7.80;99.90;;;;;;5052371;28;20696;-88
2022/03/29 00:42:42;;;;;;;37.22;21.63;;;7.70;99.90;;;;;;5052499;28;20285;-89
2022/03/29 00:45:12;;;;;;;37.25;22.88;;;7.70;99.90;;;;;;5051818;28;20208;-88
2022/03/29 00:47:40;;;;;;;31.83;22.58;;;7.70;99.90;;;;;;5054362;28;20293;-88
2022/03/29 00:50:09;;;;;;;36.40;22.27;;;7.70;99.90;;;;;;5054485;28;20317;-86
2022/03/29 00:52:39;;;;;;;39.70;22.75;;;7.70;99.90;;;;;;5054095;28;20827;-88
2022/03/29 00:55:08;;;;;;;40.42;23.65;;;7.70;99.90;;;;;;5051939;28;20292;-88
2022/03/29 00:57:37;;;;;;;37.70;22.35;;;7.70;99.90;;;;;;5037591;28;20784;-88
2022/03/29 01:00:06;;;;;;;38.58;23.23;;;7.60;99.90;;;;;;5034726;28;20705;-89
2022/03/29 01:02:36;;;;;;;41.03;21.80;;;7.60;99.90;;;;;;5036478;28;20191;-90
2022/03/29 01:05:04;;;;;;;40.80;22.00;;;7.60;99.90;;;;;;5037130;28;20213;-89
2022/03/29 01:07:32;;;;;;;33.35;22.20;;;7.60;99.90;;;;;;5036320;28;20201;-89
2022/03/29 01:10:02;;;;;;;39.90;22.08;;;7.60;99.90;;;;;;5035137;28;20226;-89
2022/03/29 01:12:31;;;;;;;33.13;21.08;;;7.70;99.90;;;;;;5035133;28;20230;-88
2022/03/29 01:15:00;;;;;;;37.83;22.00;;;7.70;99.90;;;;;;5035514;28;20245;-90
2022/03/29 01:17:40;;;;;;;32.22;20.67;;;7.70;99.90;;;;;;5035750;28;20210;-90
2022/03/29 01:20:24;;;;;;;37.75;21.52;;;7.70;99.90;;;;;;5035358;28;20309;-89
2022/03/29 01:22:55;;;;;;;36.25;22.55;;;7.80;99.90;;;;;;5035610;28;20195;-89
2022/03/29 01:25:25;;;;;;;35.53;20.67;;;7.80;99.90;;;;;;5035701;28;20236;-89
2022/03/29 01:27:54;;;;;;;36.47;22.20;;;7.80;99.90;;;;;;5035405;28;20647;-88
2022/03/29 01:30:23;;;;;;;40.75;22.00;;;7.80;99.90;;;;;;5036169;28;20230;-88
2022/03/29 01:32:52;;;;;;;32.03;21.15;;;7.80;99.90;;;;;;5049694;28;20308;-89
2022/03/29 01:35:22;;;;;;;29.95;18.77;;;7.80;99.90;;;;;;5069797;28;20216;-89
2022/03/29 01:37:51;;;;;;;33.42;19.33;;;7.90;99.90;;;;;;5065443;28;20717;-89
2022/03/29 01:40:23;;;;;;;29.73;17.90;;;7.90;99.90;;;;;;5055402;28;20776;-87
2022/03/29 01:42:53;;;;;;;26.83;18.55;;;7.80;99.90;;;;;;5052404;28;20209;-88
2022/03/29 01:45:28;;;;;;;33.20;19.48;;;7.80;99.90;;;;;;5054424;28;20194;-87
2022/03/29 01:47:56;;;;;;;27.52;17.60;;;7.70;99.90;;;;;;5053382;28;20197;-88
2022/03/29 01:50:24;;;;;;;27.88;19.65;;;7.70;99.90;;;;;;5054511;28;20705;-88
2022/03/29 01:52:52;;;;;;;30.52;19.33;;;7.60;99.90;;;;;;5054013;28;20293;-88
2022/03/29 01:55:23;;;;;;;30.58;17.95;;;7.60;99.90;;;;;;5054027;28;20197;-88
2022/03/29 01:57:53;;;;;;;32.58;18.60;;;7.70;99.90;;;;;;5053818;28;20262;-87
2022/03/29 02:00:34;;;;;;;28.60;17.48;;;7.70;99.90;;;;;;5053187;28;20229;-87
2022/03/29 02:03:05;;;;;;;31.77;18.92;;;7.70;99.90;;;;;;5053766;28;20224;-87
2022/03/29 02:05:34;;;;;;;31.08;18.95;;;7.80;99.90;;;;;;5053894;28;20217;-90
2022/03/29 02:08:03;;;;;;;25.40;17.63;;;7.70;99.90;;;;;;5055217;28;20718;-89
2022/03/29 02:10:32;;;;;;;27.23;17.98;;;7.80;99.90;;;;;;5053878;28;20712;-88
2022/03/29 02:13:01;;;;;;;26.67;16.63;;;7.70;99.90;;;;;;5054028;28;20214;-89
2022/03/29 02:15:29;;;;;;;28.17;16.60;;;7.80;99.90;;;;;;5054183;28;20265;-89
2022/03/29 02:17:57;;;;;;;25.67;16.15;;;7.80;99.90;;;;;;5053617;28;20197;-90
2022/03/29 02:20:26;;;;;;;27.00;16.42;;;7.90;99.90;;;;;;5053553;28;20753;-90
2022/03/29 02:22:54;;;;;;;25.85;16.00;;;7.80;99.90;;;;;;5054080;28;20201;-88
2022/03/29 02:25:22;;;;;;;25.25;13.63;;;7.80;99.90;;;;;;5054510;28;20209;-90
2022/03/29 02:27:51;;;;;;;18.88;13.35;;;7.80;99.90;;;;;;5053985;28;20546;-87
2022/03/29 02:30:19;;;;;;;18.55;12.40;;;7.80;99.90;;;;;;5053147;28;20232;-87
2022/03/29 02:32:47;;;;;;;22.10;13.07;;;7.80;99.90;;;;;;5053316;28;20229;-89
2022/03/29 02:35:16;;;;;;;22.65;11.02;;;7.80;99.90;;;;;;5053148;28;20251;-89
2022/03/29 02:37:44;;;;;;;15.30;11.23;;;7.80;99.90;;;;;;5059609;28;20424;-88
2022/03/29 02:40:14;;;;;;;15.70;9.57;;;7.70;99.90;;;;;;5071029;28;20221;-89
2022/03/29 02:42:43;;;;;;;13.57;8.73;;;7.60;99.90;;;;;;5053759;28;20649;-86
2022/03/29 02:45:15;;;;;;;16.63;9.45;;;7.50;99.90;;;;;;5052577;28;20672;-88
2022/03/29 02:47:44;;;;;;;19.98;10.07;;;7.40;99.90;;;;;;5051386;28;20201;-90
2022/03/29 02:50:13;;;;;;;15.60;10.02;;;7.30;99.90;;;;;;5054063;28;20213;-89
2022/03/29 02:52:45;;;;;;;14.32;11.52;;;7.20;99.90;;;;;;5054776;28;20205;-90
2022/03/29 02:55:14;;;;;;;14.50;10.13;;;7.20;99.90;;;;;;5066038;28;20319;-91
2022/03/29 02:57:42;;;;;;;15.45;10.85;;;7.10;99.90;;;;;;5067033;28;20458;-91
2022/03/29 03:00:15;;;;;;;12.77;8.38;;;7.10;99.90;;;;;;5066946;28;20201;-88
2022/03/29 03:02:45;;;;;;;13.32;9.10;;;7.00;99.90;;;;;;5061720;28;20269;-89
2022/03/29 03:05:13;;;;;;;16.33;9.05;;;6.90;99.90;;;;;;5052893;28;20202;-89
2022/03/29 03:07:43;;;;;;;11.68;8.10;;;6.90;99.90;;;;;;5053211;28;20251;-88
2022/03/29 03:10:13;;;;;;;13.32;9.18;;;6.80;99.90;;;;;;5055124;28;20696;-88
2022/03/29 03:12:42;;;;;;;16.73;10.70;;;6.60;99.90;;;;;;5054159;28;20851;-88
2022/03/29 03:15:13;;;;;;;19.17;10.77;;;6.50;99.90;;;;;;5052650;28;20312;-91
2022/03/29 03:17:41;;;;;;;21.20;10.45;;;6.40;99.90;;;;;;5033439;28;20213;-87
2022/03/29 03:20:12;;;;;;;16.35;9.98;;;6.30;99.90;;;;;;5035309;28;20270;-88
2022/03/29 03:22:41;;;;;;;18.27;11.20;;;6.20;99.90;;;;;;5034592;28;20203;-89
2022/03/29 03:25:10;;;;;;;14.73;8.90;;;6.10;99.90;;;;;;5035707;28;20198;-85
2022/03/29 03:27:38;;;;;;;13.23;9.52;;;6.10;99.90;;;;;;5034197;28;20210;-89
2022/03/29 03:30:08;;;;;;;12.60;8.07;;;6.00;99.90;;;;;;5041511;28;20308;-88
2022/03/29 03:32:36;;;;;;;22.42;11.98;;;6.00;99.90;;;;;;5035087;28;20277;-87
2022/03/29 03:35:05;;;;;;;16.80;9.27;;;6.00;99.90;;;;;;5033837;28;20214;-89
2022/03/29 03:37:34;;;;;;;19.98;9.35;;;5.90;99.90;;;;;;5034301;28;20814;-88
2022/03/29 03:40:03;;;;;;;14.82;8.82;;;5.80;99.90;;;;;;5042003;28;20214;-86
2022/03/29 03:42:30;;;;;;;18.40;8.52;;;5.80;99.90;;;;;;5052963;28;20174;-91
2022/03/29 03:44:58;;;;;;;18.63;9.02;;;5.80;99.90;;;;;;5036360;28;20289;-89
2022/03/29 03:47:27;;;;;;;17.60;9.25;;;5.80;99.90;;;;;;5032702;28;20230;-89
2022/03/29 03:49:55;;;;;;;21.10;8.40;;;5.90;99.90;;;;;;5032483;28;20685;-89
2022/03/29 03:52:23;;;;;;;19.48;8.02;;;5.90;99.90;;;;;;5033481;28;20851;-87
2022/03/29 03:54:54;;;;;;;18.73;7.50;;;5.80;99.90;;;;;;5033017;28;20206;-89
2022/03/29 03:57:23;;;;;;;16.65;7.72;;;5.70;99.90;;;;;;5034085;28;20235;-90
2022/03/29 03:59:52;;;;;;;17.65;6.22;;;5.60;99.90;;;;;;5033403;28;20238;-89
2022/03/29 04:02:20;;;;;;;21.38;6.43;;;5.50;99.90;;;;;;5033714;28;20293;-89
2022/03/29 04:04:48;;;;;;;21.80;5.63;;;5.50;99.90;;;;;;5032962;28;20240;-89
2022/03/29 04:07:16;;;;;;;20.20;6.20;;;5.40;99.90;;;;;;5033875;28;20209;-89
2022/03/29 04:09:44;;;;;;;14.45;5.75;;;5.40;99.90;;;;;;5032071;28;20226;-90
2022/03/29 04:12:13;;;;;;;23.08;6.40;;;5.30;99.90;;;;;;5033397;28;20205;-89
2022/03/29 04:14:41;;;;;;;19.80;5.50;;;5.20;99.90;;;;;;5032880;28;20285;-91
2022/03/29 04:17:11;;;;;;;21.00;5.60;;;5.20;99.90;;;;;;5031428;28;20200;-87
2022/03/29 04:19:39;;;;;;;15.68;5.35;;;5.10;99.90;;;;;;5031054;28;20288;-88
2022/03/29 04:22:07;;;;;;;20.48;5.32;;;5.10;99.90;;;;;;5045497;28;20209;-90
2022/03/29 04:24:35;;;;;;;20.40;4.88;;;5.00;99.90;;;;;;5057147;28;20283;-89
2022/03/29 04:27:03;;;;;;;17.50;5.20;;;5.00;99.90;;;;;;5036641;28;20202;-89
2022/03/29 04:29:32;;;;;;;14.60;4.30;;;5.00;99.90;;;;;;5035854;28;20282;-88
2022/03/29 04:32:00;;;;;;;20.20;4.70;;;4.90;99.90;;;;;;5036160;28;20213;-88
2022/03/29 04:34:30;;;;;;;18.58;4.57;;;4.90;99.90;;;;;;5048651;28;20229;-89
2022/03/29 04:36:59;;;;;;;14.57;4.82;;;4.90;99.90;;;;;;5056454;28;20212;-90
2022/03/29 04:39:27;;;;;;;21.00;6.45;;;4.80;99.90;;;;;;5055461;28;20230;-88
2022/03/29 04:41:55;;;;;;;17.38;5.57;;;4.80;99.90;;;;;;5056917;28;20296;-86
2022/03/29 04:44:41;;;;;;;20.65;6.13;;;4.80;99.90;;;;;;5069351;28;20214;-87
2022/03/29 04:47:10;;;;;;;27.30;6.25;;;4.70;99.90;;;;;;5064487;28;20269;-87
2022/03/29 04:49:39;;;;;;;11.93;4.22;;;4.70;99.90;;;;;;5055707;28;20226;-84
2022/03/29 04:52:08;;;;;;;20.10;5.55;;;4.70;99.90;;;;;;5056498;28;20653;-85
2022/03/29 04:54:37;;;;;;;26.00;6.00;;;4.70;99.90;;;;;;5050918;28;20217;-84
2022/03/29 04:57:05;;;;;;;22.85;6.22;;;4.70;99.90;;;;;;5049045;28;20212;-84
2022/03/29 04:59:33;;;;;;;18.05;5.47;;;4.70;99.90;;;;;;5049609;28;20225;-84
2022/03/29 05:02:02;;;;;;;16.33;5.70;;;4.70;99.90;;;;;;5044762;28;20266;-84
2022/03/29 05:04:30;;;;;;;23.42;7.60;;;4.70;99.90;;;;;;5048124;28;20401;-85
2022/03/29 05:06:58;;;;;;;24.75;8.52;;;4.70;99.90;;;;;;5045471;28;20206;-84
2022/03/29 05:09:26;;;;;;;17.85;4.35;;;4.60;99.90;;;;;;5034465;28;20856;-83
2022/03/29 05:11:59;;;;;;;27.33;5.45;;;4.60;99.90;;;;;;5031654;28;20791;-84
2022/03/29 05:14:27;;;;;;;22.52;6.32;;;4.60;99.90;;;;;;5030161;28;20233;-84
2022/03/29 05:16:55;;;;;;;17.13;4.57;;;4.50;99.90;;;;;;5030972;28;20281;-86
2022/03/29 05:19:25;;;;;;;18.67;4.75;;;4.50;99.90;;;;;;5050677;28;20245;-88
2022/03/29 05:21:53;;;;;;;17.80;5.65;;;4.50;99.90;;;;;;5053086;28;20279;-88
2022/03/29 05:24:21;;;;;;;19.33;5.72;;;4.40;99.90;;;;;;5052533;28;20766;-88
2022/03/29 05:26:49;;;;;;;23.73;5.03;;;4.40;99.90;;;;;;5053477;28;20178;-86
2022/03/29 05:29:18;;;;;;;32.50;7.05;;;4.40;99.90;;;;;;5050588;28;20370;-86
2022/03/29 05:31:46;;;;;;;24.20;5.68;;;4.50;99.90;;;;;;5054856;28;20344;-89
2022/03/29 05:34:16;;;;;;;16.45;5.45;;;4.60;99.90;;;;;;5056215;28;20209;-91
2022/03/29 05:36:46;;;;;;;27.85;5.97;;;4.60;99.90;;;;;;5054279;28;20297;-86
2022/03/29 05:39:15;;;;;;;21.23;4.38;;;4.60;99.90;;;;;;5057284;28;20221;-88
2022/03/29 05:41:43;;;;;;;25.40;4.35;;;4.60;99.90;;;;;;5055175;28;20384;-85
2022/03/29 05:44:11;;;;;;;19.10;4.85;;;4.70;99.90;;;;;;5055779;28;20293;-86
2022/03/29 05:49:26;;;;;;;18.90;5.70;;;4.80;99.90;;;;;;5069578;28;20356;-88
2022/03/29 05:51:56;;;;;;;18.00;3.78;;;5.00;99.90;;;;;;5059777;28;20739;-88
2022/03/29 05:54:24;;;;;;;19.58;4.72;;;5.00;99.90;;;;;;5054313;28;20255;-88
2022/03/29 05:56:54;;;;;;;13.07;3.80;;;5.00;99.90;;;;;;5055433;28;20858;-87
2022/03/29 05:59:22;;;;;;;23.50;4.25;;;5.10;99.90;;;;;;5041272;28;20241;-86
2022/03/29 06:01:50;;;;;;;16.83;5.25;;;5.10;99.90;;;;;;5034429;28;20214;-86
2022/03/29 06:04:22;;;;;;;12.70;3.40;;;5.20;99.90;;;;;;5050863;28;20201;-85
2022/03/29 06:06:52;;;;;;;14.90;4.45;;;5.20;99.90;;;;;;5060793;28;20225;-87
2022/03/29 06:09:21;;;;;;;17.83;3.67;;;5.30;99.90;;;;;;5062455;28;20447;-88
2022/03/29 06:11:49;;;;;;;13.63;3.70;;;5.20;99.90;;;;;;5061161;28;20731;-85
2022/03/29 06:14:17;;;;;;;26.05;5.07;;;5.20;99.90;;;;;;5056750;28;20210;-87
2022/03/29 06:16:46;;;;;;;17.08;3.10;;;5.10;99.90;;;;;;5054928;28;20233;-85
2022/03/29 06:19:14;;;;;;;14.05;3.17;;;5.20;99.90;;;;;;5039828;28;20301;-87
2022/03/29 06:21:43;;;;;;;10.48;3.35;;;5.20;99.90;;;;;;5034045;28;20252;-85
2022/03/29 06:24:12;;;;;;;17.23;3.40;;;5.20;99.90;;;;;;5033009;28;20709;-87
2022/03/29 06:26:41;;;;;;;25.05;4.10;;;5.20;99.90;;;;;;5031660;28;20248;-86
2022/03/29 06:29:10;;;;;;;14.82;4.32;;;5.20;99.90;;;;;;5043967;28;20378;-86
2022/03/29 06:31:39;;;;;;;23.13;4.50;;;5.20;99.90;;;;;;5054366;28;20498;-88
2022/03/29 06:34:07;;;;;;;19.17;4.25;;;5.20;99.90;;;;;;5055297;28;20193;-86
2022/03/29 06:36:36;;;;;;;9.85;3.03;;;5.20;99.90;;;;;;5056005;28;20223;-86
2022/03/29 06:39:04;;;;;;;16.25;4.00;;;5.30;99.90;;;;;;5054756;28;20252;-88
2022/03/29 06:41:34;;;;;;;19.73;4.35;;;5.20;99.90;;;;;;5052198;28;20255;-86
2022/03/29 06:44:05;;;;;;;18.60;4.32;;;5.10;99.90;;;;;;5051638;28;20198;-85
2022/03/29 06:46:34;;;;;;;23.65;3.80;;;5.20;99.90;;;;;;5052505;28;20221;-85
2022/03/29 06:49:03;;;;;;;8.70;2.67;;;5.30;99.90;;;;;;5040021;28;20224;-86
2022/03/29 06:51:31;;;;;;;11.70;3.60;;;5.30;99.90;;;;;;5062307;28;20217;-87
2022/03/29 06:54:00;;;;;;;19.40;3.92;;;5.40;99.90;;;;;;5055308;28;20236;-87
2022/03/29 06:56:30;;;;;;;15.73;4.65;;;5.50;99.90;;;;;;5039348;28;20218;-88
2022/03/29 06:59:00;;;;;;;12.32;3.35;;;5.50;99.90;;;;;;5034926;28;20233;-86
2022/03/29 07:01:29;;;;;;;17.95;2.50;;;5.50;99.90;;;;;;5033907;28;20692;-88
2022/03/29 07:03:59;;;;;;;18.35;3.75;;;5.60;99.90;;;;;;5035593;28;20206;-91
2022/03/29 07:06:36;;;;;;;16.10;2.83;;;5.70;99.90;;;;;;5035833;28;20278;-88
2022/03/29 07:12:11;;;;;;;14.23;2.90;;;5.80;99.90;;;;;;5035651;28;20202;-89
2022/03/29 07:14:39;;;;;;;9.65;2.50;;;5.80;99.90;;;;;;5035159;28;20245;-88
2022/03/29 07:17:13;;;;;;;15.45;3.33;;;5.80;99.90;;;;;;5034815;28;20229;-87
2022/03/29 07:19:44;;;;;;;12.05;2.38;;;5.80;99.90;;;;;;5041027;28;20213;-86
2022/03/29 07:22:12;;;;;;;8.73;2.75;;;5.90;99.90;;;;;;5052503;28;20229;-87
2022/03/29 07:24:40;;;;;;;9.23;2.33;;;6.00;99.90;;;;;;5039493;28;20202;-88
2022/03/29 07:27:11;;;;;;;13.40;4.13;;;6.10;99.90;;;;;;5032558;28;20195;-85
2022/03/29 07:29:39;;;;;;;8.77;2.45;;;6.10;99.90;;;;;;5040932;28;20217;-84
2022/03/29 07:32:10;;;;;;;11.48;3.03;;;6.10;99.90;;;;;;5055835;28;20237;-87
2022/03/29 07:34:44;;;;;;;8.85;1.90;;;6.20;99.90;;;;;;5055659;28;20220;-87
2022/03/29 07:37:12;;;;;;;10.05;3.83;;;6.40;99.90;;;;;;5052046;28;20217;-87
2022/03/29 07:39:41;;;;;;;15.40;3.15;;;6.40;99.90;;;;;;5051798;28;20255;-87
2022/03/29 07:42:09;;;;;;;10.85;3.25;;;6.40;99.90;;;;;;5050148;28;20748;-87
2022/03/29 07:44:41;;;;;;;14.75;2.97;;;6.50;99.90;;;;;;5052755;28;20215;-85
2022/03/29 07:47:15;;;;;;;8.75;2.75;;;6.60;99.90;;;;;;5053631;28;20197;-88
2022/03/29 07:49:43;;;;;;;12.90;2.60;;;6.60;99.90;;;;;;5054930;28;20279;-89
2022/03/29 07:52:31;;;;;;;10.52;2.15;;;6.70;99.90;;;;;;5054396;28;20213;-88
2022/03/29 07:54:59;;;;;;;7.95;2.40;;;6.80;99.90;;;;;;5059161;28;20209;-85
2022/03/29 07:57:28;;;;;;;9.20;2.30;;;6.70;99.90;;;;;;5029509;28;20725;-88
2022/03/29 08:00:33;;;;;;;8.20;2.25;;;6.80;99.90;;;;;;5033419;28;20825;-86
2022/03/29 08:03:05;;;;;;;11.82;2.75;;;6.90;99.90;;;;;;5050863;28;20212;-84
2022/03/29 08:05:39;;;;;;;16.30;2.17;;;7.00;99.90;;;;;;5050798;28;20232;-85
2022/03/29 08:08:10;;;;;;;10.52;2.30;;;7.00;99.90;;;;;;5050222;28;20194;-86
2022/03/29 08:10:39;;;;;;;8.75;2.45;;;7.00;99.90;;;;;;5050585;28;20222;-88
2022/03/29 08:13:10;;;;;;;5.70;1.80;;;7.20;99.90;;;;;;5050177;28;20205;-85
2022/03/29 08:15:41;;;;;;;10.63;2.03;;;7.30;99.90;;;;;;5049496;28;20656;-87
2022/03/29 08:18:12;;;;;;;5.63;1.88;;;7.30;99.90;;;;;;5048890;28;20430;-85
2022/03/29 08:20:41;;;;;;;7.35;2.65;;;7.40;99.90;;;;;;5046468;28;20225;-86
2022/03/29 08:23:10;;;;;;;15.05;3.35;;;7.40;99.90;;;;;;5036765;28;20872;-84
2022/03/29 08:25:45;;;;;;;15.38;3.00;;;7.50;99.90;;;;;;5030451;28;20749;-84
2022/03/29 08:28:14;;;;;;;11.18;2.58;;;7.60;99.90;;;;;;5031101;28;20201;-85
2022/03/29 08:30:57;;;;;;;8.88;2.28;;;7.60;99.90;;;;;;5038921;28;20221;-87
2022/03/29 08:37:39;;;;;;;10.10;3.03;;;7.50;99.90;;;;;;5018884;28;20902;-88
2022/03/29 08:40:35;;;;;;;9.93;2.78;;;7.40;99.90;;;;;;5031636;28;20230;-86
2022/03/29 08:43:15;;;;;;;13.70;3.13;;;7.30;99.90;;;;;;5050782;28;20258;-86
2022/03/29 08:45:52;;;;;;;6.53;1.42;;;7.40;99.90;;;;;;5047930;28;20214;-86
2022/03/29 08:48:23;;;;;;;15.07;2.50;;;7.40;99.90;;;;;;5047648;28;20182;-84
2022/03/29 08:50:54;;;;;;;10.98;2.58;;;7.30;99.90;;;;;;5047385;28;20701;-87
2022/03/29 08:53:44;;;;;;;7.00;1.83;;;7.40;99.90;;;;;;5034398;28;20792;-85
2022/03/29 08:56:12;;;;;;;9.25;2.15;;;7.30;99.90;;;;;;5047829;28;20230;-85
2022/03/29 08:58:40;;;;;;;10.48;2.08;;;7.30;99.90;;;;;;5065026;28;20216;-84
2022/03/29 09:01:12;;;;;;;7.85;3.20;;;7.40;99.90;;;;;;5054603;28;20221;-83
2022/03/29 09:04:14;;;;;;;9.80;1.50;;;7.30;99.90;;;;;;5051476;28;20213;-83
2022/03/29 09:07:04;;;;;;;5.65;1.75;;;7.40;99.90;;;;;;5049793;28;20201;-85
2022/03/29 09:09:44;;;;;;;5.35;1.85;;;7.30;99.90;;;;;;5044407;28;20545;-86
2022/03/29 09:12:28;;;;;;;9.65;2.35;;;7.30;99.90;;;;;;5054738;28;20332;-84
2022/03/29 09:15:01;;;;;;;13.10;1.98;;;7.30;99.90;;;;;;5054950;28;20648;-84
2022/03/29 09:17:42;;;;;;;8.25;2.10;;;7.40;99.90;;;;;;5055316;28;20826;-85
2022/03/29 09:20:30;;;;;;;10.50;2.30;;;7.60;99.90;;;;;;5051834;28;20389;-83
2022/03/29 09:26:05;;;;;;;7.88;2.00;;;7.70;99.90;;;;;;5052561;28;20221;-87
2022/03/29 09:28:45;;;;;;;6.03;1.70;;;7.80;99.90;;;;;;5054712;28;20194;-82
2022/03/29 09:31:33;;;;;;;7.25;1.55;;;7.90;99.90;;;;;;5054798;28;20209;-87
2022/03/29 09:34:26;;;;;;;9.70;2.78;;;7.90;99.90;;;;;;5055486;28;20223;-86
2022/03/29 09:36:55;;;;;;;3.22;1.20;;;7.90;99.90;;;;;;5055711;28;20247;-87
2022/03/29 09:39:35;;;;;;;7.30;1.98;;;7.90;99.90;;;;;;5054089;28;20222;-85
2022/03/29 09:42:09;;;;;;;4.15;1.75;;;8.00;99.90;;;;;;5055952;28;20662;-89
2022/03/29 09:44:41;;;;;;;6.00;1.77;;;8.10;99.90;;;;;;5055425;28;20408;-87
2022/03/29 09:47:11;;;;;;;8.27;2.38;;;8.20;99.90;;;;;;5055082;28;20324;-86
2022/03/29 09:49:52;;;;;;;7.80;2.15;;;8.40;99.90;;;;;;5049284;28;20233;-86
2022/03/29 09:52:23;;;;;;;10.00;2.00;;;8.60;99.90;;;;;;5054708;28;20182;-88
2022/03/29 09:55:07;;;;;;;15.27;2.28;;;8.80;99.90;;;;;;5055537;28;20182;-89
2022/03/29 09:57:39;;;;;;;9.65;2.70;;;9.00;99.90;;;;;;5053724;28;20300;-87
2022/03/29 10:00:09;;;;;;;10.77;2.03;;;9.10;99.90;;;;;;5060166;28;20225;-84
2022/03/29 10:02:40;;;;;;;4.75;2.63;;;9.00;99.90;;;;;;5062355;28;20194;-85
2022/03/29 10:05:11;;;;;;;12.73;3.15;;;9.00;99.90;;;;;;5051524;28;20219;-85
2022/03/29 10:07:44;;;;;;;10.27;3.22;;;9.00;99.90;;;;;;5051820;28;20495;-86
2022/03/29 10:10:13;;;;;;;3.33;2.13;;;9.10;99.90;;;;;;5051048;28;21085;-86
2022/03/29 10:12:43;;;;;;;4.43;1.70;;;9.10;99.90;;;;;;5052046;28;20549;-85
2022/03/29 10:15:31;;;;;;;16.95;2.22;;;9.10;99.90;;;;;;5051246;28;20300;-86
2022/03/29 10:18:00;;;;;;;5.90;2.10;;;9.10;99.90;;;;;;5051889;28;20766;-86
2022/03/29 10:20:29;;;;;;;8.65;1.92;;;9.20;99.90;;;;;;5055206;28;20285;-85
2022/03/29 10:22:59;;;;;;;8.95;1.85;;;9.20;99.90;;;;;;5053508;28;20206;-84
2022/03/29 10:25:28;;;;;;;10.95;2.60;;;9.30;99.90;;;;;;5054920;28;20212;-86
2022/03/29 10:27:59;;;;;;;6.85;2.08;;;9.30;99.90;;;;;;5054603;28;20304;-85
2022/03/29 10:30:32;;;;;;;10.30;1.85;;;9.40;99.90;;;;;;5035830;28;20255;-87
2022/03/29 10:33:16;;;;;;;4.88;2.00;;;9.60;99.90;;;;;;5048013;28;20201;-87
2022/03/29 10:36:09;;;;;;;7.30;2.22;;;9.80;99.90;;;;;;5048832;28;20236;-87
2022/03/29 10:39:04;;;;;;;5.18;1.60;;;9.80;99.90;;;;;;5051074;28;20288;-85
2022/03/29 10:41:52;;;;;;;9.90;1.63;;;9.80;99.90;;;;;;5052270;28;20214;-85
2022/03/29 10:44:22;;;;;;;5.28;1.35;;;9.70;99.90;;;;;;5052249;28;20194;-84
2022/03/29 10:46:51;;;;;;;7.50;2.28;;;9.60;99.90;;;;;;5050176;28;20194;-85
2022/03/29 10:49:24;;;;;;;6.38;1.67;;;9.50;99.90;;;;;;5050678;28;20293;-87
2022/03/29 10:51:55;;;;;;;7.43;1.75;;;9.50;99.90;;;;;;5049974;28;20181;-86
2022/03/29 10:54:28;;;;;;;10.77;1.85;;;9.60;99.90;;;;;;5050758;28;20209;-87
2022/03/29 10:57:01;;;;;;;3.95;1.52;;;9.70;99.90;;;;;;5052398;28;20178;-84
2022/03/29 10:59:31;;;;;;;8.40;1.75;;;9.80;99.90;;;;;;5050742;28;20285;-86
2022/03/29 11:02:12;;;;;;;8.75;1.92;;;9.70;99.90;;;;;;5054087;28;20452;-88
2022/03/29 11:05:04;;;;;;;8.90;2.50;;;9.70;99.90;;;;;;5072121;28;20192;-86
2022/03/29 11:07:33;;;;;;;4.72;1.95;;;9.70;99.90;;;;;;5052558;28;20198;-86
2022/03/29 11:10:10;;;;;;;6.07;1.63;;;9.70;99.90;;;;;;5054462;28;20277;-87
2022/03/29 11:12:43;;;;;;;4.25;1.50;;;9.70;99.90;;;;;;5057351;28;20193;-86
2022/03/29 11:15:48;;;;;;;5.93;1.65;;;9.70;99.90;;;;;;5050868;28;20645;-86
2022/03/29 11:18:43;;;;;;;6.13;1.65;;;9.70;99.90;;;;;;5049808;28;20225;-86
2022/03/29 11:21:27;;;;;;;6.07;2.50;;;9.80;99.90;;;;;;5049772;28;20182;-87
2022/03/29 11:23:58;;;;;;;8.00;1.92;;;9.70;99.90;;;;;;5050064;28;20799;-86
2022/03/29 11:26:26;;;;;;;6.80;2.13;;;9.70;99.90;;;;;;5048488;28;20516;-83
2022/03/29 11:28:56;;;;;;;7.07;1.70;;;9.70;99.90;;;;;;5049222;28;20315;-85
2022/03/29 11:31:32;;;;;;;6.43;1.80;;;9.80;99.90;;;;;;5047977;28;20225;-87
2022/03/29 11:34:02;;;;;;;8.30;1.92;;;9.80;99.90;;;;;;5050354;28;20768;-88
2022/03/29 11:36:35;;;;;;;2.38;1.33;;;9.90;99.90;;;;;;5051766;28;20857;-88
2022/03/29 11:39:08;;;;;;;7.88;2.53;;;10.00;99.90;;;;;;5049171;28;20253;-87
2022/03/29 11:41:36;;;;;;;4.40;1.60;;;10.20;99.90;;;;;;5049519;28;20202;-88
2022/03/29 11:44:06;;;;;;;5.40;1.50;;;10.30;99.90;;;;;;5049240;28;20211;-87
2022/03/29 11:46:46;;;;;;;8.40;1.80;;;10.30;99.90;;;;;;5049096;28;20296;-86
2022/03/29 11:49:15;;;;;;;5.75;1.92;;;10.20;99.90;;;;;;5050050;28;20271;-84
2022/03/29 11:51:43;;;;;;;9.65;1.75;;;10.10;99.90;;;;;;5050622;28;20292;-88
2022/03/29 11:54:19;;;;;;;6.95;2.22;;;10.10;99.90;;;;;;5049066;28;20836;-88
2022/03/29 11:56:47;;;;;;;8.23;1.63;;;10.10;99.90;;;;;;5050054;28;20210;-87
2022/03/29 11:59:16;;;;;;;6.93;1.92;;;10.10;99.90;;;;;;5049142;28;20229;-82
2022/03/29 12:01:44;;;;;;;6.28;1.80;;;10.10;99.90;;;;;;5048576;28;20218;-85
2022/03/29 12:04:12;;;;;;;6.03;2.13;;;10.20;99.90;;;;;;5049747;28;20380;-86
2022/03/29 12:06:50;;;;;;;5.35;1.60;;;10.20;99.90;;;;;;5065220;28;20221;-86
2022/03/29 12:09:23;;;;;;;6.93;1.80;;;10.10;99.90;;;;;;5055552;28;20233;-85
2022/03/29 12:11:55;;;;;;;6.57;1.40;;;10.20;99.90;;;;;;5050432;28;20435;-84
2022/03/29 12:14:24;;;;;;;8.35;1.70;;;10.20;99.90;;;;;;5050101;28;20344;-86
2022/03/29 12:16:54;;;;;;;5.32;1.85;;;10.20;99.90;;;;;;5050488;28;20217;-85
2022/03/29 12:19:25;;;;;;;7.10;2.00;;;10.30;99.90;;;;;;5049139;28;20218;-85
2022/03/29 12:21:57;;;;;;;6.17;1.70;;;10.40;99.90;;;;;;5047934;28;20241;-87
2022/03/29 12:24:28;;;;;;;12.10;2.60;;;10.50;99.90;;;;;;5030087;28;21163;-86
2022/03/29 12:27:01;;;;;;;3.87;2.13;;;10.50;99.90;;;;;;5030406;28;20468;-85
2022/03/29 12:29:29;;;;;;;4.63;1.42;;;10.60;99.90;;;;;;5029422;28;20613;-85
2022/03/29 12:32:00;;;;;;;4.32;1.27;;;10.60;99.90;;;;;;5028621;28;20808;-86
2022/03/29 12:34:29;;;;;;;5.47;1.60;;;10.60;99.90;;;;;;5042989;28;20209;-87
2022/03/29 12:37:00;;;;;;;3.35;1.15;;;10.60;99.90;;;;;;5048114;28;20199;-87
2022/03/29 12:39:33;;;;;;;6.05;2.10;;;10.60;99.90;;;;;;5049492;28;20782;-87
2022/03/29 12:42:01;;;;;;;4.65;2.38;;;10.60;99.90;;;;;;5049039;28;20240;-85
2022/03/29 12:44:32;;;;;;;5.33;1.40;;;10.60;99.90;;;;;;5050747;28;20637;-84
2022/03/29 12:47:00;;;;;;;6.82;1.15;;;10.60;99.90;;;;;;5049426;28;20492;-82
2022/03/29 12:49:30;;;;;;;7.03;2.17;;;10.60;99.90;;;;;;5048679;28;20212;-85
2022/03/29 12:52:01;;;;;;;5.13;1.57;;;10.50;99.90;;;;;;5052028;28;20475;-84
2022/03/29 12:54:37;;;;;;;4.43;1.42;;;10.40;99.90;;;;;;5050630;28;20493;-84
2022/03/29 12:57:07;;;;;;;4.45;1.60;;;10.40;99.90;;;;;;5053122;28;20215;-83
2022/03/29 12:59:37;;;;;;;4.40;2.30;;;10.40;99.90;;;;;;5052455;28;20308;-83
2022/03/29 13:02:16;;;;;;;4.68;1.27;;;10.40;99.90;;;;;;5051028;28;21164;-82
2022/03/29 13:04:46;;;;;;;10.80;2.30;;;10.40;99.90;;;;;;5049950;28;20241;-82
2022/03/29 13:07:39;;;;;;;5.88;1.42;;;10.40;99.90;;;;;;5050479;28;20810;-85
2022/03/29 13:10:11;;;;;;;5.18;1.50;;;10.40;99.90;;;;;;5064278;28;20258;-84
2022/03/29 13:12:51;;;;;;;14.80;3.28;;;10.40;99.90;;;;;;5043574;28;20202;-84
2022/03/29 13:15:36;;;;;;;9.18;1.88;;;10.30;99.90;;;;;;5028434;28;20244;-81
2022/03/29 13:18:05;;;;;;;5.38;1.60;;;10.30;99.90;;;;;;5038248;28;20432;-84
2022/03/29 13:20:36;;;;;;;5.27;1.70;;;10.30;99.90;;;;;;5050659;28;20232;-85